Time;durP1;ratioP1;P1;durP2;ratioP2;P2;SDS_P1;SDS_P2;PMS_P1;PMS_P2;Temp;Humidity;BMP_temperature;BMP_pressure;BME280_temperature;BME280_humidity;BME280_pressure;Samples;Min_cycle;Max_cycle;Signal;HPM_P1;HPM_P2
2021/06/11 00:00:42;;;;;;;;;;;;;;;20.14;60.11;100537.66;5015638;28;960;-62
2021/06/11 00:03:07;;;;;;;;;;;;;;;20.01;61.02;100544.00;5015261;28;830;-43
2021/06/11 00:05:32;;;;;;;;;;;;;;;20.20;59.91;100545.88;5015234;28;828;-43
2021/06/11 00:07:58;;;;;;;;;;;;;;;20.14;60.97;100543.19;5015645;28;784;-61
2021/06/11 00:10:23;;;;;;;;;;;;;;;20.21;60.10;100539.22;5018309;28;582;-45
2021/06/11 00:12:49;;;;;;;;;;;;;;;19.73;60.60;100537.53;5018561;28;765;-47
2021/06/11 00:15:14;;;;;;;;;;;;;;;19.90;60.24;100528.75;5018977;28;976;-62
2021/06/11 00:17:40;;;;;;;;;;;;;;;19.96;60.89;100525.59;5000994;28;1919;-64
2021/06/11 00:20:06;;;;;;;;;;;;;;;20.02;60.72;100529.09;5018861;28;760;-61
2021/06/11 00:22:31;;;;;;;;;;;;;;;20.04;59.47;100526.81;5019201;28;800;-53
2021/06/11 00:24:56;;;;;;;;;;;;;;;20.18;59.10;100527.66;5018554;28;792;-64
2021/06/11 00:27:22;;;;;;;;;;;;;;;20.05;59.67;100514.66;5018909;28;807;-57
2021/06/11 00:29:47;;;;;;;;;;;;;;;20.18;59.54;100518.56;5018632;28;960;-53
2021/06/11 00:32:13;;;;;;;;;;;;;;;19.99;60.62;100513.94;5018938;28;879;-50
2021/06/11 00:34:38;;;;;;;;;;;;;;;20.12;60.21;100512.31;5018108;28;841;-43
2021/06/11 00:37:04;;;;;;;;;;;;;;;20.11;58.64;100513.44;5018700;28;1977;-61
2021/06/11 00:39:29;;;;;;;;;;;;;;;19.78;60.08;100513.44;5018671;28;1081;-42
2021/06/11 00:42:00;;;;;;;;;;;;;;;19.87;60.26;100513.59;5018908;28;831;-44
2021/06/11 00:44:25;;;;;;;;;;;;;;;20.09;58.94;100528.66;5017627;28;956;-43
2021/06/11 00:46:50;;;;;;;;;;;;;;;19.82;58.64;100520.03;5018702;28;539;-63
2021/06/11 00:49:16;;;;;;;;;;;;;;;20.00;59.04;100520.28;5018353;28;820;-63
2021/06/11 00:51:41;;;;;;;;;;;;;;;19.90;60.08;100513.00;5018491;28;864;-62
2021/06/11 00:54:07;;;;;;;;;;;;;;;19.52;60.17;100515.78;5018457;28;793;-62
2021/06/11 00:56:32;;;;;;;;;;;;;;;19.67;60.95;100512.78;5017650;28;1975;-43
2021/06/11 00:58:57;;;;;;;;;;;;;;;20.03;61.15;100518.84;5018193;28;1010;-43
2021/06/11 01:01:23;;;;;;;;;;;;;;;20.22;60.83;100513.28;5000264;28;777;-47
2021/06/11 01:03:48;;;;;;;;;;;;;;;20.38;60.45;100509.06;5018204;28;832;-47
2021/06/11 01:06:14;;;;;;;;;;;;;;;20.63;60.25;100504.16;5017791;28;756;-61
2021/06/11 01:08:39;;;;;;;;;;;;;;;20.48;59.45;100508.91;5018428;28;787;-43
2021/06/11 01:11:05;;;;;;;;;;;;;;;20.42;57.68;100503.78;5017387;28;808;-42
2021/06/11 01:13:30;;;;;;;;;;;;;;;20.46;58.21;100500.06;5016619;28;1232;-42
2021/06/11 01:15:55;;;;;;;;;;;;;;;20.37;59.70;100501.94;5016756;28;1132;-62
2021/06/11 01:18:21;;;;;;;;;;;;;;;19.89;62.33;100496.75;5018141;28;1914;-54
2021/06/11 01:20:47;;;;;;;;;;;;;;;19.92;61.29;100501.66;5016182;28;787;-64
2021/06/11 01:23:21;;;;;;;;;;;;;;;19.77;58.30;100500.75;5016744;28;904;-45
2021/06/11 01:26:09;;;;;;;;;;;;;;;19.87;56.06;100499.00;5017818;28;780;-42
2021/06/11 01:28:35;;;;;;;;;;;;;;;19.86;58.12;100498.16;5016514;28;887;-42
2021/06/11 01:31:00;;;;;;;;;;;;;;;19.92;60.60;100498.88;5018097;28;1015;-58
2021/06/11 01:33:26;;;;;;;;;;;;;;;20.21;62.23;100503.34;5017324;28;824;-41
2021/06/11 01:35:56;;;;;;;;;;;;;;;20.29;62.83;100505.41;5018207;28;748;-56
2021/06/11 01:38:22;;;;;;;;;;;;;;;20.36;61.21;100497.53;5016169;28;1969;-54
2021/06/11 01:40:47;;;;;;;;;;;;;;;20.45;59.38;100498.44;5015886;28;947;-43
2021/06/11 01:43:13;;;;;;;;;;;;;;;20.82;59.37;100502.13;5017549;28;887;-43
2021/06/11 01:45:38;;;;;;;;;;;;;;;20.29;61.61;100503.44;4999757;28;945;-43
2021/06/11 01:48:04;;;;;;;;;;;;;;;20.30;62.62;100507.03;4999872;28;1207;-53
2021/06/11 01:50:30;;;;;;;;;;;;;;;20.23;59.63;100495.56;5017639;28;737;-49
2021/06/11 01:52:56;;;;;;;;;;;;;;;20.06;57.17;100499.72;4999703;28;776;-42
2021/06/11 01:55:21;;;;;;;;;;;;;;;19.81;57.35;100501.84;4999524;28;853;-63
2021/06/11 01:57:47;;;;;;;;;;;;;;;20.02;55.99;100506.16;5016489;28;1905;-45
2021/06/11 02:00:13;;;;;;;;;;;;;;;19.91;56.53;100494.47;4999381;28;1007;-42
2021/06/11 02:02:39;;;;;;;;;;;;;;;19.90;57.63;100495.63;5017528;28;811;-42
2021/06/11 02:05:05;;;;;;;;;;;;;;;20.06;56.84;100482.34;5015615;28;851;-42
2021/06/11 02:07:30;;;;;;;;;;;;;;;20.12;57.58;100479.19;5017091;28;847;-42
2021/06/11 02:09:56;;;;;;;;;;;;;;;20.33;59.06;100487.91;5016578;28;812;-58
2021/06/11 02:12:21;;;;;;;;;;;;;;;20.19;59.89;100484.31;5016733;28;800;-56
2021/06/11 02:14:47;;;;;;;;;;;;;;;20.46;58.75;100489.03;5017151;28;960;-62
2021/06/11 02:17:12;;;;;;;;;;;;;;;20.45;58.54;100481.88;5016850;28;1946;-44
2021/06/11 02:19:37;;;;;;;;;;;;;;;20.27;60.53;100489.16;5014764;28;847;-51
2021/06/11 02:22:03;;;;;;;;;;;;;;;20.37;60.84;100496.41;5016201;28;713;-50
2021/06/11 02:24:29;;;;;;;;;;;;;;;20.33;61.37;100490.66;5015721;28;788;-42
2021/06/11 02:26:54;;;;;;;;;;;;;;;20.42;60.57;100488.00;5016706;28;803;-50
2021/06/11 02:29:20;;;;;;;;;;;;;;;20.15;61.49;100492.38;5015381;28;1451;-57
2021/06/11 02:31:45;;;;;;;;;;;;;;;19.97;63.05;100493.28;5016328;28;799;-63
2021/06/11 02:34:13;;;;;;;;;;;;;;;19.97;62.26;100502.38;5016656;28;838;-42
2021/06/11 02:36:38;;;;;;;;;;;;;;;19.46;62.37;100490.25;5016990;28;1994;-43
2021/06/11 02:39:04;;;;;;;;;;;;;;;19.51;62.97;100494.03;5016527;28;1153;-45
2021/06/11 02:41:30;;;;;;;;;;;;;;;19.36;63.72;100493.13;5015928;28;815;-42
2021/06/11 02:43:56;;;;;;;;;;;;;;;19.40;63.21;100507.97;4998717;28;917;-64
2021/06/11 02:46:25;;;;;;;;;;;;;;;19.70;63.29;100511.38;5015651;28;792;-42
2021/06/11 02:48:57;;;;;;;;;;;;;;;19.65;62.72;100508.69;5015923;28;748;-61
2021/06/11 02:51:34;;;;;;;;;;;;;;;19.65;61.77;100508.69;5015826;28;816;-46
2021/06/11 02:54:01;;;;;;;;;;;;;;;19.72;62.58;100509.13;5014947;28;829;-42
2021/06/11 02:56:33;;;;;;;;;;;;;;;19.91;61.63;100502.75;5015922;28;1918;-63
2021/06/11 02:59:00;;;;;;;;;;;;;;;19.94;61.68;100511.25;5016735;28;992;-49
2021/06/11 03:01:26;;;;;;;;;;;;;;;19.87;62.38;100504.50;5015131;28;822;-46
2021/06/11 03:03:52;;;;;;;;;;;;;;;19.89;62.01;100510.53;4998220;28;761;-44
2021/06/11 03:06:18;;;;;;;;;;;;;;;19.90;62.41;100515.75;4998882;28;815;-62
2021/06/11 03:08:43;;;;;;;;;;;;;;;20.02;61.93;100522.72;4982901;28;1229;-43
2021/06/11 03:11:13;;;;;;;;;;;;;;;19.94;62.26;100530.56;4997896;28;811;-48
2021/06/11 03:13:38;;;;;;;;;;;;;;;19.85;62.51;100526.88;4998981;28;756;-46
2021/06/11 03:16:04;;;;;;;;;;;;;;;19.61;62.88;100529.72;4998308;28;1157;-62
2021/06/11 03:18:32;;;;;;;;;;;;;;;19.82;62.42;100521.97;5016168;28;1969;-62
2021/06/11 03:20:58;;;;;;;;;;;;;;;19.62;63.29;100526.66;4998579;28;812;-63
2021/06/11 03:23:27;;;;;;;;;;;;;;;19.39;64.00;100533.91;4997823;28;753;-42
2021/06/11 03:25:53;;;;;;;;;;;;;;;19.61;64.02;100524.19;4998306;28;832;-62
2021/06/11 03:28:20;;;;;;;;;;;;;;;19.59;63.64;100518.19;4999163;28;784;-46
2021/06/11 03:30:50;;;;;;;;;;;;;;;19.44;64.40;100514.53;5015414;28;1015;-42
2021/06/11 03:33:17;;;;;;;;;;;;;;;19.51;64.14;100525.19;5014111;28;875;-65
2021/06/11 03:35:45;;;;;;;;;;;;;;;19.61;63.14;100518.69;5015023;28;784;-43
2021/06/11 03:38:16;;;;;;;;;;;;;;;19.52;64.17;100526.00;5014655;28;1910;-46
2021/06/11 03:40:42;;;;;;;;;;;;;;;19.41;64.25;100531.66;5015698;28;1196;-45
2021/06/11 03:43:08;;;;;;;;;;;;;;;19.52;64.18;100531.50;4997567;28;940;-54
2021/06/11 03:45:34;;;;;;;;;;;;;;;19.60;63.26;100526.16;5018965;28;963;-44
2021/06/11 03:48:00;;;;;;;;;;;;;;;19.34;63.38;100533.97;5019387;28;916;-44
2021/06/11 03:50:25;;;;;;;;;;;;;;;19.65;63.19;100536.28;5019981;28;768;-62
2021/06/11 03:52:51;;;;;;;;;;;;;;;19.55;63.79;100531.72;5019796;28;777;-49
2021/06/11 03:55:20;;;;;;;;;;;;;;;19.60;63.77;100539.09;5019520;28;826;-43
2021/06/11 03:57:57;;;;;;;;;;;;;;;19.60;64.10;100544.63;5019457;28;1913;-41
2021/06/11 04:00:23;;;;;;;;;;;;;;;19.73;63.56;100543.88;5017587;28;1487;-47
2021/06/11 04:02:48;;;;;;;;;;;;;;;19.51;64.12;100546.44;5009485;28;812;-41
2021/06/11 04:05:14;;;;;;;;;;;;;;;19.62;64.63;100547.91;4999275;28;809;-58
2021/06/11 04:07:55;;;;;;;;;;;;;;;19.66;64.40;100543.44;4999895;28;799;-42
2021/06/11 04:10:22;;;;;;;;;;;;;;;19.66;64.36;100543.44;5001101;28;1404;-41
2021/06/11 04:12:54;;;;;;;;;;;;;;;19.77;64.32;100544.09;4999534;28;811;-43
2021/06/11 04:15:19;;;;;;;;;;;;;;;19.79;63.87;100545.44;4993274;28;965;-40
2021/06/11 04:17:50;;;;;;;;;;;;;;;20.05;62.65;100550.56;5003298;28;1979;-54
2021/06/11 04:20:19;;;;;;;;;;;;;;;20.02;62.57;100555.84;5000020;28;720;-42
2021/06/11 04:22:44;;;;;;;;;;;;;;;20.00;63.36;100554.19;4982530;28;775;-42
2021/06/11 04:25:11;;;;;;;;;;;;;;;20.05;63.06;100560.75;4981276;28;796;-41
2021/06/11 04:27:36;;;;;;;;;;;;;;;19.86;62.88;100552.53;4981721;28;839;-44
2021/06/11 04:30:04;;;;;;;;;;;;;;;20.06;61.34;100562.41;4991576;28;1016;-58
2021/06/11 04:32:29;;;;;;;;;;;;;;;20.16;61.70;100562.22;4998929;28;752;-40
2021/06/11 04:34:55;;;;;;;;;;;;;;;20.18;62.61;100560.78;4999473;28;773;-48
2021/06/11 04:37:21;;;;;;;;;;;;;;;20.23;62.85;100568.19;4980866;28;1918;-41
2021/06/11 04:39:46;;;;;;;;;;;;;;;20.36;61.54;100572.09;4998656;28;1176;-45
2021/06/11 04:42:11;;;;;;;;;;;;;;;20.31;60.38;100573.00;4999246;28;752;-45
2021/06/11 04:44:37;;;;;;;;;;;;;;;20.26;59.46;100567.56;4999211;28;937;-41
2021/06/11 04:47:03;;;;;;;;;;;;;;;20.41;59.93;100568.41;5009896;28;834;-55
2021/06/11 04:49:28;;;;;;;;;;;;;;;20.41;61.47;100571.16;5005540;28;969;-48
2021/06/11 04:51:53;;;;;;;;;;;;;;;20.65;61.78;100573.75;4998649;28;756;-55
2021/06/11 04:54:19;;;;;;;;;;;;;;;20.70;61.75;100581.16;4998253;28;753;-41
2021/06/11 04:56:44;;;;;;;;;;;;;;;20.35;62.77;100575.97;4998397;28;1911;-40
2021/06/11 04:59:10;;;;;;;;;;;;;;;20.24;62.17;100577.28;4998588;28;1278;-39
2021/06/11 05:01:36;;;;;;;;;;;;;;;20.43;60.42;100577.22;4998213;28;895;-40
2021/06/11 05:04:01;;;;;;;;;;;;;;;20.30;59.48;100579.66;4997492;28;1093;-41
2021/06/11 05:06:26;;;;;;;;;;;;;;;20.38;59.63;100582.81;4998449;28;761;-41
2021/06/11 05:08:52;;;;;;;;;;;;;;;20.29;60.58;100582.72;4979884;28;806;-41
2021/06/11 05:11:18;;;;;;;;;;;;;;;20.52;61.15;100580.91;4998827;28;820;-42
2021/06/11 05:13:43;;;;;;;;;;;;;;;20.05;62.50;100580.91;4980735;28;1371;-54
2021/06/11 05:16:09;;;;;;;;;;;;;;;20.35;63.30;100589.78;4997758;28;1017;-39
2021/06/11 05:18:34;;;;;;;;;;;;;;;20.46;62.96;100588.47;4997779;28;1918;-40
2021/06/11 05:21:00;;;;;;;;;;;;;;;20.43;62.81;100594.59;4998880;28;789;-41
2021/06/11 05:23:25;;;;;;;;;;;;;;;20.46;62.35;100598.69;4998251;28;831;-40
2021/06/11 05:25:51;;;;;;;;;;;;;;;20.65;60.93;100602.19;4998220;28;761;-41
2021/06/11 05:28:16;;;;;;;;;;;;;;;20.52;60.43;100601.06;4997924;28;796;-40
2021/06/11 05:30:42;;;;;;;;;;;;;;;20.35;60.48;100603.56;4979942;28;961;-39
2021/06/11 05:33:07;;;;;;;;;;;;;;;20.51;59.72;100604.94;4997890;28;818;-39
2021/06/11 05:35:33;;;;;;;;;;;;;;;20.50;60.68;100603.31;4998452;28;752;-40
2021/06/11 05:38:02;;;;;;;;;;;;;;;20.43;62.36;100599.31;4998111;28;1981;-43
2021/06/11 05:40:27;;;;;;;;;;;;;;;20.54;62.63;100602.69;4997561;28;1149;-41
2021/06/11 05:42:52;;;;;;;;;;;;;;;20.64;62.36;100614.38;4997825;28;860;-40
2021/06/11 05:45:18;;;;;;;;;;;;;;;20.64;62.37;100611.59;4997326;28;984;-40
2021/06/11 05:47:43;;;;;;;;;;;;;;;20.68;62.31;100611.84;4998217;28;1364;-58
2021/06/11 05:50:09;;;;;;;;;;;;;;;20.71;62.22;100611.25;4997733;28;756;-44
2021/06/11 05:52:35;;;;;;;;;;;;;;;20.92;61.46;100606.13;4997709;28;748;-45
2021/06/11 05:55:00;;;;;;;;;;;;;;;20.69;62.12;100616.25;4997624;28;785;-40
2021/06/11 05:57:26;;;;;;;;;;;;;;;20.41;61.84;100613.44;4998039;28;1941;-60
2021/06/11 05:59:53;;;;;;;;;;;;;;;20.00;61.36;100622.38;4996742;28;1027;-39
2021/06/11 06:02:19;;;;;;;;;;;;;;;19.88;59.49;100616.50;4997768;28;824;-40
2021/06/11 06:04:45;;;;;;;;;;;;;;;19.82;57.95;100624.03;4997558;28;792;-61
2021/06/11 06:07:10;;;;;;;;;;;;;;;19.65;56.82;100619.84;4996898;28;1427;-40
2021/06/11 06:09:35;;;;;;;;;;;;;;;19.21;56.63;100620.16;4979752;28;804;-39
2021/06/11 06:12:01;;;;;;;;;;;;;;;19.35;56.04;100609.22;4997758;28;768;-40
2021/06/11 06:14:26;;;;;;;;;;;;;;;19.33;57.12;100623.31;4997402;28;957;-41
2021/06/11 06:16:52;;;;;;;;;;;;;;;19.36;58.66;100622.72;5005440;28;1906;-41
2021/06/11 06:19:17;;;;;;;;;;;;;;;19.44;60.77;100613.78;4999778;28;781;-59
2021/06/11 06:21:42;;;;;;;;;;;;;;;19.62;62.18;100614.13;5016563;28;860;-54
2021/06/11 06:24:08;;;;;;;;;;;;;;;19.80;62.75;100618.03;5016281;28;808;-59
2021/06/11 06:26:34;;;;;;;;;;;;;;;19.78;63.56;100617.44;5016930;28;800;-55
2021/06/11 06:28:59;;;;;;;;;;;;;;;20.05;63.69;100619.56;5016609;28;960;-43
2021/06/11 06:31:25;;;;;;;;;;;;;;;20.06;64.05;100631.41;5016107;28;841;-64
2021/06/11 06:33:50;;;;;;;;;;;;;;;19.97;64.97;100626.56;5016383;28;733;-39
2021/06/11 06:36:16;;;;;;;;;;;;;;;20.17;64.44;100614.38;5016679;28;784;-39
2021/06/11 06:38:41;;;;;;;;;;;;;;;20.27;64.59;100623.59;5016224;28;1914;-39
2021/06/11 06:41:07;;;;;;;;;;;;;;;20.29;64.92;100618.59;4996672;28;1184;-38
2021/06/11 06:43:32;;;;;;;;;;;;;;;20.21;65.26;100619.28;4996976;28;824;-39
2021/06/11 06:45:58;;;;;;;;;;;;;;;20.38;64.64;100614.00;4996034;28;960;-39
2021/06/11 06:48:23;;;;;;;;;;;;;;;20.59;64.15;100619.16;4996641;28;809;-39
2021/06/11 06:50:49;;;;;;;;;;;;;;;20.63;64.03;100620.19;4996852;28;813;-39
2021/06/11 06:53:14;;;;;;;;;;;;;;;20.74;63.49;100621.69;4995916;28;788;-42
2021/06/11 06:55:40;;;;;;;;;;;;;;;20.59;63.97;100613.66;4995414;28;1007;-40
2021/06/11 06:58:05;;;;;;;;;;;;;;;20.64;63.87;100621.84;4996759;28;1979;-39
2021/06/11 07:00:32;;;;;;;;;;;;;;;20.77;63.48;100625.78;5009077;28;1083;-41
2021/06/11 07:02:57;;;;;;;;;;;;;;;20.35;63.34;100620.16;5015666;28;808;-42
2021/06/11 07:05:23;;;;;;;;;;;;;;;20.07;62.25;100614.53;5016181;28;779;-41
2021/06/11 07:07:48;;;;;;;;;;;;;;;19.97;60.22;100623.81;5016215;28;784;-44
2021/06/11 07:10:13;;;;;;;;;;;;;;;19.83;58.76;100626.50;5016345;28;788;-41
2021/06/11 07:12:39;;;;;;;;;;;;;;;19.69;57.26;100625.59;5015906;28;1109;-42
2021/06/11 07:15:05;;;;;;;;;;;;;;;19.64;56.22;100620.13;5015155;28;960;-64
2021/06/11 07:17:31;;;;;;;;;;;;;;;19.31;56.29;100623.63;4997144;28;1987;-42
2021/06/11 07:19:56;;;;;;;;;;;;;;;19.41;55.30;100619.91;4978978;28;1228;-42
2021/06/11 07:22:22;;;;;;;;;;;;;;;19.10;56.90;100620.31;4995927;28;809;-45
2021/06/11 07:24:47;;;;;;;;;;;;;;;19.31;57.51;100622.81;4995722;28;867;-41
2021/06/11 07:27:13;;;;;;;;;;;;;;;19.43;59.26;100616.84;4996659;28;820;-41
2021/06/11 07:29:44;;;;;;;;;;;;;;;19.39;61.50;100619.41;4995510;28;941;-41
2021/06/11 07:32:10;;;;;;;;;;;;;;;19.34;63.01;100618.66;4996330;28;764;-41
2021/06/11 07:34:36;;;;;;;;;;;;;;;19.62;63.89;100612.16;4995613;28;748;-43
2021/06/11 07:37:02;;;;;;;;;;;;;;;19.86;63.68;100616.00;4995909;28;1914;-57
2021/06/11 07:39:27;;;;;;;;;;;;;;;19.97;63.91;100621.03;4996456;28;1152;-56
2021/06/11 07:41:54;;;;;;;;;;;;;;;19.94;64.91;100618.06;4996115;28;519;-51
2021/06/11 07:44:20;;;;;;;;;;;;;;;19.89;64.98;100618.97;4995064;28;969;-60
2021/06/11 07:46:46;;;;;;;;;;;;;;;20.03;64.01;100613.50;4996328;28;764;-59
2021/06/11 07:49:12;;;;;;;;;;;;;;;19.98;65.16;100622.69;4996507;28;780;-41
2021/06/11 07:51:37;;;;;;;;;;;;;;;20.08;65.83;100615.38;4995792;28;805;-57
2021/06/11 07:54:03;;;;;;;;;;;;;;;20.25;65.68;100612.06;4996013;28;903;-60
2021/06/11 07:56:28;;;;;;;;;;;;;;;20.25;65.47;100612.06;4995476;28;1922;-52
2021/06/11 07:58:54;;;;;;;;;;;;;;;20.36;65.26;100608.00;4995779;28;961;-40
2021/06/11 08:01:19;;;;;;;;;;;;;;;20.50;64.82;100608.00;4996203;28;744;-41
2021/06/11 08:03:45;;;;;;;;;;;;;;;20.40;64.96;100611.78;4996010;28;820;-41
2021/06/11 08:06:10;;;;;;;;;;;;;;;20.63;64.20;100609.97;4995515;28;740;-40
2021/06/11 08:08:36;;;;;;;;;;;;;;;20.60;64.19;100607.81;4996006;28;744;-39
2021/06/11 08:11:02;;;;;;;;;;;;;;;20.61;64.14;100611.41;4994803;28;1125;-49
2021/06/11 08:13:27;;;;;;;;;;;;;;;20.64;63.94;100610.78;4995494;28;898;-47
2021/06/11 08:15:52;;;;;;;;;;;;;;;20.59;63.72;100606.16;4995766;28;1018;-60
2021/06/11 08:18:19;;;;;;;;;;;;;;;20.64;63.56;100605.28;5035190;28;1983;-60
2021/06/11 08:20:44;;;;;;;;;;;;;;;20.34;61.41;100602.78;5034944;28;764;-40
2021/06/11 08:23:10;;;;;;;;;;;;;;;19.99;59.03;100599.50;5035268;28;752;-46
2021/06/11 08:25:36;;;;;;;;;;;;;;;19.53;56.98;100607.63;5034121;28;1195;-45
2021/06/11 08:28:01;;;;;;;;;;;;;;;19.40;53.73;100598.94;5034511;28;768;-57
2021/06/11 08:30:28;;;;;;;;;;;;;;;19.31;52.71;100595.25;5015623;28;1099;-59
2021/06/11 08:32:53;;;;;;;;;;;;;;;19.34;52.89;100600.16;5019273;28;807;-41
2021/06/11 08:35:19;;;;;;;;;;;;;;;19.32;57.04;100605.13;5018527;28;776;-42
2021/06/11 08:37:46;;;;;;;;;;;;;;;19.59;59.78;100604.50;5018005;28;1977;-42
2021/06/11 08:40:12;;;;;;;;;;;;;;;19.80;61.45;100605.03;5030653;28;1157;-41
2021/06/11 08:42:37;;;;;;;;;;;;;;;19.58;63.43;100604.78;5037793;28;1146;-57
2021/06/11 08:45:04;;;;;;;;;;;;;;;19.64;64.15;100606.34;5020903;28;976;-41
2021/06/11 08:47:29;;;;;;;;;;;;;;;19.62;64.40;100606.66;5037850;28;879;-44
2021/06/11 08:49:55;;;;;;;;;;;;;;;19.66;64.55;100599.41;5038541;28;866;-45
2021/06/11 08:52:21;;;;;;;;;;;;;;;19.77;64.44;100604.78;5038086;28;799;-46
2021/06/11 08:54:47;;;;;;;;;;;;;;;19.62;65.82;100606.66;5038576;28;859;-53
2021/06/11 08:57:13;;;;;;;;;;;;;;;19.93;65.78;100602.63;5036942;28;1902;-57
2021/06/11 08:59:39;;;;;;;;;;;;;;;19.93;66.79;100597.13;5037625;28;968;-42
2021/06/11 09:02:05;;;;;;;;;;;;;;;20.14;65.93;100598.41;5038220;28;855;-41
2021/06/11 09:04:52;;;;;;;;;;;;;;;20.11;66.12;100601.78;5037671;28;841;-40
2021/06/11 09:07:22;;;;;;;;;;;;;;;20.42;65.12;100598.47;5037826;28;751;-41
2021/06/11 09:09:48;;;;;;;;;;;;;;;20.45;64.78;100603.38;5038130;28;804;-41
2021/06/11 09:12:27;;;;;;;;;;;;;;;20.42;64.72;100601.22;5038106;28;756;-39
2021/06/11 09:14:56;;;;;;;;;;;;;;;20.49;64.40;100598.88;5037737;28;960;-41
2021/06/11 09:17:37;;;;;;;;;;;;;;;20.63;63.80;100587.84;5037835;28;1979;-38
2021/06/11 09:20:05;;;;;;;;;;;;;;;20.57;63.93;100593.81;5037661;28;745;-40
2021/06/11 09:22:43;;;;;;;;;;;;;;;20.71;63.11;100589.13;5037870;28;843;-40
2021/06/11 09:25:23;;;;;;;;;;;;;;;20.73;63.06;100591.59;5037983;28;858;-40
2021/06/11 09:27:49;;;;;;;;;;;;;;;20.70;62.88;100600.50;5037606;28;756;-41
2021/06/11 09:30:15;;;;;;;;;;;;;;;20.57;63.21;100593.81;5033308;28;1110;-41
2021/06/11 09:32:40;;;;;;;;;;;;;;;20.40;61.41;100586.09;5033044;28;1303;-40
2021/06/11 09:35:06;;;;;;;;;;;;;;;20.11;60.38;100587.97;5037337;28;795;-48
2021/06/11 09:37:37;;;;;;;;;;;;;;;19.91;59.02;100585.53;5036785;28;1913;-40
2021/06/11 09:40:07;;;;;;;;;;;;;;;19.70;58.16;100593.28;5037021;28;1156;-44
2021/06/11 09:42:33;;;;;;;;;;;;;;;19.62;57.06;100592.03;5037525;28;793;-47
2021/06/11 09:44:59;;;;;;;;;;;;;;;19.66;55.90;100582.06;5036914;28;885;-43
2021/06/11 09:47:40;;;;;;;;;;;;;;;19.49;55.40;100588.91;5019684;28;1084;-41
2021/06/11 09:50:06;;;;;;;;;;;;;;;19.25;56.47;100585.38;5037131;28;752;-55
2021/06/11 09:52:35;;;;;;;;;;;;;;;19.39;57.03;100583.56;5037220;28;745;-41
2021/06/11 09:55:05;;;;;;;;;;;;;;;19.55;58.10;100575.88;5037164;28;837;-40
2021/06/11 09:57:33;;;;;;;;;;;;;;;19.47;60.85;100569.09;5037465;28;1973;-59
2021/06/11 09:59:59;;;;;;;;;;;;;;;19.52;62.38;100570.13;5036963;28;948;-58
2021/06/11 10:02:24;;;;;;;;;;;;;;;19.44;63.85;100572.44;5036321;28;803;-40
2021/06/11 10:04:50;;;;;;;;;;;;;;;19.71;63.75;100562.66;5037343;28;752;-43
2021/06/11 10:07:15;;;;;;;;;;;;;;;19.90;63.78;100554.38;5036774;28;728;-40
2021/06/11 10:09:41;;;;;;;;;;;;;;;19.96;64.02;100560.63;5036940;28;811;-41
2021/06/11 10:12:07;;;;;;;;;;;;;;;20.00;64.00;100558.91;5036718;28;825;-55
2021/06/11 10:14:32;;;;;;;;;;;;;;;19.88;64.22;100548.34;5036522;28;971;-41
2021/06/11 10:16:58;;;;;;;;;;;;;;;20.02;64.68;100547.56;5036623;28;1910;-41
2021/06/11 10:19:24;;;;;;;;;;;;;;;20.06;64.81;100546.66;5036684;28;764;-41
2021/06/11 10:21:49;;;;;;;;;;;;;;;19.93;65.48;100542.72;5036087;28;752;-44
2021/06/11 10:24:15;;;;;;;;;;;;;;;20.16;64.80;100540.97;5019468;28;757;-40
2021/06/11 10:26:41;;;;;;;;;;;;;;;20.07;65.01;100536.44;5036917;28;818;-42
2021/06/11 10:29:06;;;;;;;;;;;;;;;20.18;64.86;100537.91;5036153;28;976;-39
2021/06/11 10:31:35;;;;;;;;;;;;;;;20.21;64.80;100528.19;5019400;28;733;-39
2021/06/11 10:34:02;;;;;;;;;;;;;;;20.40;64.27;100533.63;5018297;28;796;-39
2021/06/11 10:38:53;;;;;;;;;;;;;;;20.35;64.21;100524.31;5036213;28;1983;-39
2021/06/11 10:41:19;;;;;;;;;;;;;;;20.43;64.07;100522.78;5036909;28;797;-42
2021/06/11 10:43:44;;;;;;;;;;;;;;;20.41;64.13;100514.00;5035538;28;835;-39
2021/06/11 10:46:25;;;;;;;;;;;;;;;20.46;63.92;100516.66;5036050;28;1050;-42
2021/06/11 10:48:56;;;;;;;;;;;;;;;20.62;63.12;100516.34;5035958;28;764;-41
2021/06/11 10:51:31;;;;;;;;;;;;;;;20.63;63.21;100520.75;5036151;28;787;-41
2021/06/11 10:54:15;;;;;;;;;;;;;;;20.45;61.97;100520.53;5034986;28;865;-40
2021/06/11 10:56:49;;;;;;;;;;;;;;;20.36;63.34;100516.84;5036120;28;1979;-40
2021/06/11 10:59:33;;;;;;;;;;;;;;;20.35;63.69;100520.72;5035670;28;1006;-40
2021/06/11 11:01:59;;;;;;;;;;;;;;;20.45;63.49;100515.00;5036579;28;905;-39
2021/06/11 11:04:31;;;;;;;;;;;;;;;20.52;62.98;100511.84;5035568;28;918;-44
2021/06/11 11:06:57;;;;;;;;;;;;;;;20.60;62.87;100507.56;5036250;28;820;-39
2021/06/11 11:09:22;;;;;;;;;;;;;;;20.57;62.73;100503.47;5036315;28;741;-39
2021/06/11 11:11:48;;;;;;;;;;;;;;;20.72;62.31;100504.28;5036521;28;753;-62
2021/06/11 11:14:33;;;;;;;;;;;;;;;20.76;61.97;100503.38;5017311;28;1347;-40
2021/06/11 11:16:58;;;;;;;;;;;;;;;20.72;62.02;100496.84;5035537;28;1902;-53
2021/06/11 11:19:43;;;;;;;;;;;;;;;20.60;61.11;100502.03;5035892;28;799;-40
2021/06/11 11:22:29;;;;;;;;;;;;;;;19.97;60.70;100493.28;5013961;28;1186;-41
2021/06/11 11:24:55;;;;;;;;;;;;;;;19.96;58.54;100491.63;5035095;28;760;-40
2021/06/11 11:27:21;;;;;;;;;;;;;;;19.82;57.51;100489.69;5035772;28;796;-39
2021/06/11 11:29:46;;;;;;;;;;;;;;;19.81;56.36;100501.84;5035734;28;1004;-40
2021/06/11 11:32:12;;;;;;;;;;;;;;;19.51;56.10;100496.78;5017554;28;945;-43
2021/06/11 11:34:37;;;;;;;;;;;;;;;19.37;56.08;100494.78;5035598;28;848;-40
2021/06/11 11:37:03;;;;;;;;;;;;;;;19.52;54.89;100501.16;5035461;28;1968;-39
2021/06/11 11:39:28;;;;;;;;;;;;;;;19.38;55.48;100493.69;5035403;28;1120;-39
2021/06/11 11:41:56;;;;;;;;;;;;;;;19.45;56.70;100494.09;5036002;28;853;-43
2021/06/11 11:44:22;;;;;;;;;;;;;;;19.43;58.84;100496.38;5035472;28;1023;-41
2021/06/11 11:46:47;;;;;;;;;;;;;;;19.71;60.43;100490.91;5035006;28;799;-39
2021/06/11 11:49:12;;;;;;;;;;;;;;;19.68;62.38;100491.53;5035508;28;760;-39
2021/06/11 11:51:38;;;;;;;;;;;;;;;19.65;63.63;100489.38;5035742;28;799;-60
2021/06/11 11:54:03;;;;;;;;;;;;;;;19.79;64.02;100486.66;5035754;28;750;-41
2021/06/11 11:56:29;;;;;;;;;;;;;;;19.85;64.28;100484.66;5035573;28;772;-50
2021/06/11 11:58:54;;;;;;;;;;;;;;;19.98;64.19;100490.22;5035133;28;1981;-41
2021/06/11 12:01:20;;;;;;;;;;;;;;;19.92;64.87;100490.59;5035466;28;788;-42
2021/06/11 12:03:45;;;;;;;;;;;;;;;20.02;64.81;100482.16;5035484;28;760;-52
2021/06/11 12:06:11;;;;;;;;;;;;;;;19.89;65.35;100480.19;5037871;28;772;-41
2021/06/11 12:08:36;;;;;;;;;;;;;;;20.10;64.99;100475.09;5039053;28;783;-42
2021/06/11 12:11:01;;;;;;;;;;;;;;;20.23;64.36;100476.25;5039184;28;729;-39
2021/06/11 12:13:27;;;;;;;;;;;;;;;20.13;64.81;100477.25;5039007;28;800;-40
2021/06/11 12:15:53;;;;;;;;;;;;;;;20.19;64.80;100473.28;5038833;28;1140;-41
2021/06/11 12:18:18;;;;;;;;;;;;;;;19.98;65.46;100483.91;5038585;28;1975;-59
2021/06/11 12:20:44;;;;;;;;;;;;;;;20.25;64.61;100485.03;5038947;28;787;-40
2021/06/11 12:23:09;;;;;;;;;;;;;;;20.25;64.75;100485.84;5021407;28;1148;-61
2021/06/11 12:25:35;;;;;;;;;;;;;;;20.39;64.06;100491.38;5039336;28;792;-43
2021/06/11 12:28:00;;;;;;;;;;;;;;;20.26;64.58;100483.91;5038302;28;800;-41
2021/06/11 12:30:26;;;;;;;;;;;;;;;20.25;64.61;100476.75;5038723;28;964;-40
2021/06/11 12:32:51;;;;;;;;;;;;;;;20.39;64.12;100474.00;5038951;28;828;-47
2021/06/11 12:35:17;;;;;;;;;;;;;;;20.38;63.93;100470.41;5038854;28;819;-60
2021/06/11 12:37:42;;;;;;;;;;;;;;;20.44;63.76;100471.97;5038813;28;1963;-41
2021/06/11 12:40:08;;;;;;;;;;;;;;;20.32;64.15;100468.88;5038178;28;1183;-57
2021/06/11 12:42:39;;;;;;;;;;;;;;;20.32;64.08;100477.97;5038710;28;738;-41
2021/06/11 12:45:05;;;;;;;;;;;;;;;20.04;63.20;100471.63;5021870;28;1016;-41
2021/06/11 12:47:31;;;;;;;;;;;;;;;20.04;64.49;100471.63;5038778;28;800;-40
2021/06/11 12:49:56;;;;;;;;;;;;;;;20.13;64.39;100480.84;5037710;28;808;-61
2021/06/11 12:52:22;;;;;;;;;;;;;;;20.28;64.04;100481.66;5038434;28;748;-61
2021/06/11 12:54:47;;;;;;;;;;;;;;;20.39;63.55;100482.28;5038503;28;756;-51